sensor_id;sensor_type;location;lat;lon;timestamp;P1;durP1;ratioP1;P2;durP2;ratioP2
26060;SDS011;36331;51.378;0.018;2023-02-28T00:01:47;4.10;;;1.20;;
26060;SDS011;36331;51.378;0.018;2023-02-28T00:04:17;2.47;;;1.13;;
26060;SDS011;36331;51.378;0.018;2023-02-28T00:06:46;4.25;;;1.10;;
26060;SDS011;36331;51.378;0.018;2023-02-28T00:09:15;4.13;;;1.33;;
26060;SDS011;36331;51.378;0.018;2023-02-28T00:11:46;3.45;;;1.23;;
26060;SDS011;36331;51.378;0.018;2023-02-28T00:14:15;3.65;;;2.72;;
26060;SDS011;36331;51.378;0.018;2023-02-28T00:16:46;5.07;;;1.85;;
26060;SDS011;36331;51.378;0.018;2023-02-28T00:19:15;2.70;;;1.30;;
26060;SDS011;36331;51.378;0.018;2023-02-28T00:21:44;3.45;;;1.48;;
26060;SDS011;36331;51.378;0.018;2023-02-28T00:24:13;3.97;;;1.52;;
26060;SDS011;36331;51.378;0.018;2023-02-28T00:26:43;6.60;;;1.67;;
26060;SDS011;36331;51.378;0.018;2023-02-28T00:29:14;2.70;;;1.27;;
26060;SDS011;36331;51.378;0.018;2023-02-28T00:31:45;3.67;;;1.55;;
26060;SDS011;36331;51.378;0.018;2023-02-28T00:34:15;10.43;;;3.70;;
26060;SDS011;36331;51.378;0.018;2023-02-28T00:36:44;5.85;;;1.35;;
26060;SDS011;36331;51.378;0.018;2023-02-28T00:39:17;2.20;;;1.00;;
26060;SDS011;36331;51.378;0.018;2023-02-28T00:41:46;9.93;;;1.35;;
26060;SDS011;36331;51.378;0.018;2023-02-28T00:44:15;2.53;;;1.10;;
26060;SDS011;36331;51.378;0.018;2023-02-28T00:46:46;2.90;;;1.50;;
26060;SDS011;36331;51.378;0.018;2023-02-28T00:49:15;3.38;;;1.17;;
26060;SDS011;36331;51.378;0.018;2023-02-28T00:51:44;2.05;;;1.15;;
26060;SDS011;36331;51.378;0.018;2023-02-28T00:54:13;6.53;;;2.55;;
26060;SDS011;36331;51.378;0.018;2023-02-28T00:56:42;3.22;;;1.15;;
26060;SDS011;36331;51.378;0.018;2023-02-28T00:59:12;4.22;;;1.13;;
26060;SDS011;36331;51.378;0.018;2023-02-28T01:01:42;4.85;;;1.92;;
26060;SDS011;36331;51.378;0.018;2023-02-28T01:04:13;3.95;;;1.63;;
26060;SDS011;36331;51.378;0.018;2023-02-28T01:06:42;5.20;;;1.98;;
26060;SDS011;36331;51.378;0.018;2023-02-28T01:09:12;4.38;;;2.10;;
26060;SDS011;36331;51.378;0.018;2023-02-28T01:11:42;4.45;;;1.35;;
26060;SDS011;36331;51.378;0.018;2023-02-28T01:14:12;5.63;;;1.67;;
26060;SDS011;36331;51.378;0.018;2023-02-28T01:16:42;2.78;;;1.40;;
26060;SDS011;36331;51.378;0.018;2023-02-28T01:19:12;4.35;;;1.50;;
26060;SDS011;36331;51.378;0.018;2023-02-28T01:21:42;2.22;;;1.02;;
26060;SDS011;36331;51.378;0.018;2023-02-28T01:24:12;4.32;;;1.42;;
26060;SDS011;36331;51.378;0.018;2023-02-28T01:26:41;4.13;;;1.20;;
26060;SDS011;36331;51.378;0.018;2023-02-28T01:29:10;5.45;;;2.08;;
26060;SDS011;36331;51.378;0.018;2023-02-28T01:31:39;4.25;;;1.67;;
26060;SDS011;36331;51.378;0.018;2023-02-28T01:34:09;4.60;;;1.95;;
26060;SDS011;36331;51.378;0.018;2023-02-28T01:36:39;3.90;;;1.85;;
26060;SDS011;36331;51.378;0.018;2023-02-28T01:39:10;10.55;;;4.07;;
26060;SDS011;36331;51.378;0.018;2023-02-28T01:41:39;3.40;;;2.22;;
26060;SDS011;36331;51.378;0.018;2023-02-28T01:46:56;4.72;;;2.05;;
26060;SDS011;36331;51.378;0.018;2023-02-28T01:49:25;3.35;;;1.55;;
26060;SDS011;36331;51.378;0.018;2023-02-28T01:51:56;6.22;;;2.20;;
26060;SDS011;36331;51.378;0.018;2023-02-28T01:54:26;9.90;;;3.50;;
26060;SDS011;36331;51.378;0.018;2023-02-28T01:56:56;4.70;;;1.70;;
26060;SDS011;36331;51.378;0.018;2023-02-28T01:59:29;4.72;;;1.95;;
26060;SDS011;36331;51.378;0.018;2023-02-28T02:02:01;3.60;;;1.80;;
26060;SDS011;36331;51.378;0.018;2023-02-28T02:04:32;7.15;;;1.92;;
26060;SDS011;36331;51.378;0.018;2023-02-28T02:07:05;4.78;;;1.90;;
26060;SDS011;36331;51.378;0.018;2023-02-28T02:09:35;3.75;;;1.58;;
26060;SDS011;36331;51.378;0.018;2023-02-28T02:12:07;4.10;;;1.85;;
26060;SDS011;36331;51.378;0.018;2023-02-28T02:14:42;6.13;;;1.98;;
26060;SDS011;36331;51.378;0.018;2023-02-28T02:17:17;6.63;;;2.25;;
26060;SDS011;36331;51.378;0.018;2023-02-28T02:19:56;5.65;;;2.58;;
26060;SDS011;36331;51.378;0.018;2023-02-28T02:22:38;5.18;;;2.63;;
26060;SDS011;36331;51.378;0.018;2023-02-28T02:25:19;8.98;;;2.38;;
26060;SDS011;36331;51.378;0.018;2023-02-28T02:28:16;4.18;;;2.17;;
26060;SDS011;36331;51.378;0.018;2023-02-28T02:30:59;5.53;;;1.75;;
26060;SDS011;36331;51.378;0.018;2023-02-28T02:36:32;5.50;;;2.03;;
26060;SDS011;36331;51.378;0.018;2023-02-28T02:39:02;7.18;;;2.25;;
26060;SDS011;36331;51.378;0.018;2023-02-28T02:41:34;5.47;;;2.08;;
26060;SDS011;36331;51.378;0.018;2023-02-28T02:44:06;6.03;;;2.92;;
26060;SDS011;36331;51.378;0.018;2023-02-28T02:46:39;4.65;;;2.50;;
26060;SDS011;36331;51.378;0.018;2023-02-28T02:49:13;5.95;;;2.50;;
26060;SDS011;36331;51.378;0.018;2023-02-28T02:51:45;10.00;;;2.33;;
26060;SDS011;36331;51.378;0.018;2023-02-28T02:54:16;8.75;;;3.90;;
26060;SDS011;36331;51.378;0.018;2023-02-28T02:56:46;4.63;;;2.03;;
26060;SDS011;36331;51.378;0.018;2023-02-28T02:59:17;4.22;;;2.35;;
26060;SDS011;36331;51.378;0.018;2023-02-28T03:01:49;4.53;;;2.40;;
26060;SDS011;36331;51.378;0.018;2023-02-28T03:04:20;3.87;;;2.07;;
26060;SDS011;36331;51.378;0.018;2023-02-28T03:06:52;8.38;;;4.45;;
26060;SDS011;36331;51.378;0.018;2023-02-28T03:09:22;5.55;;;2.55;;
26060;SDS011;36331;51.378;0.018;2023-02-28T03:11:53;7.47;;;2.50;;
26060;SDS011;36331;51.378;0.018;2023-02-28T03:14:25;3.78;;;2.55;;
26060;SDS011;36331;51.378;0.018;2023-02-28T03:17:00;6.68;;;2.63;;
26060;SDS011;36331;51.378;0.018;2023-02-28T03:19:34;7.20;;;2.65;;
26060;SDS011;36331;51.378;0.018;2023-02-28T03:22:12;5.70;;;2.50;;
26060;SDS011;36331;51.378;0.018;2023-02-28T03:24:45;8.07;;;2.45;;
26060;SDS011;36331;51.378;0.018;2023-02-28T03:27:21;6.80;;;3.45;;
26060;SDS011;36331;51.378;0.018;2023-02-28T03:29:53;6.63;;;2.83;;
26060;SDS011;36331;51.378;0.018;2023-02-28T03:32:24;4.50;;;2.42;;
26060;SDS011;36331;51.378;0.018;2023-02-28T03:34:56;7.18;;;3.00;;
26060;SDS011;36331;51.378;0.018;2023-02-28T03:37:31;8.38;;;3.00;;
26060;SDS011;36331;51.378;0.018;2023-02-28T03:40:03;5.13;;;3.13;;
26060;SDS011;36331;51.378;0.018;2023-02-28T03:42:36;6.32;;;2.67;;
26060;SDS011;36331;51.378;0.018;2023-02-28T03:45:10;6.25;;;3.20;;
26060;SDS011;36331;51.378;0.018;2023-02-28T03:47:41;2.65;;;1.90;;
26060;SDS011;36331;51.378;0.018;2023-02-28T03:50:13;6.03;;;2.50;;
26060;SDS011;36331;51.378;0.018;2023-02-28T03:52:47;6.38;;;3.40;;
26060;SDS011;36331;51.378;0.018;2023-02-28T03:55:18;5.05;;;2.30;;
26060;SDS011;36331;51.378;0.018;2023-02-28T03:57:50;6.55;;;2.70;;
26060;SDS011;36331;51.378;0.018;2023-02-28T04:00:25;10.35;;;2.47;;
26060;SDS011;36331;51.378;0.018;2023-02-28T04:02:57;5.93;;;2.75;;
26060;SDS011;36331;51.378;0.018;2023-02-28T04:05:26;6.57;;;2.63;;
26060;SDS011;36331;51.378;0.018;2023-02-28T04:08:04;4.53;;;2.45;;
26060;SDS011;36331;51.378;0.018;2023-02-28T04:10:33;5.63;;;3.10;;
26060;SDS011;36331;51.378;0.018;2023-02-28T04:13:02;4.15;;;2.25;;
26060;SDS011;36331;51.378;0.018;2023-02-28T04:15:31;11.00;;;2.78;;
26060;SDS011;36331;51.378;0.018;2023-02-28T04:18:01;5.07;;;2.38;;
26060;SDS011;36331;51.378;0.018;2023-02-28T04:20:30;7.78;;;3.35;;
26060;SDS011;36331;51.378;0.018;2023-02-28T04:22:59;3.92;;;2.22;;
26060;SDS011;36331;51.378;0.018;2023-02-28T04:25:30;6.43;;;2.65;;
26060;SDS011;36331;51.378;0.018;2023-02-28T04:27:59;7.23;;;2.87;;
26060;SDS011;36331;51.378;0.018;2023-02-28T04:30:29;3.25;;;2.60;;
26060;SDS011;36331;51.378;0.018;2023-02-28T04:33:00;8.02;;;2.80;;
26060;SDS011;36331;51.378;0.018;2023-02-28T04:35:29;7.72;;;3.45;;
26060;SDS011;36331;51.378;0.018;2023-02-28T04:37:59;5.80;;;2.65;;
26060;SDS011;36331;51.378;0.018;2023-02-28T04:40:30;6.07;;;3.67;;
26060;SDS011;36331;51.378;0.018;2023-02-28T04:42:59;3.63;;;2.47;;
26060;SDS011;36331;51.378;0.018;2023-02-28T04:45:30;5.60;;;3.22;;
26060;SDS011;36331;51.378;0.018;2023-02-28T04:48:00;5.38;;;2.72;;
26060;SDS011;36331;51.378;0.018;2023-02-28T04:50:29;6.93;;;2.85;;
26060;SDS011;36331;51.378;0.018;2023-02-28T04:52:58;7.15;;;2.78;;
26060;SDS011;36331;51.378;0.018;2023-02-28T04:55:29;6.88;;;3.05;;
26060;SDS011;36331;51.378;0.018;2023-02-28T04:57:58;5.40;;;2.72;;
26060;SDS011;36331;51.378;0.018;2023-02-28T05:00:28;5.47;;;3.00;;
26060;SDS011;36331;51.378;0.018;2023-02-28T05:02:57;6.70;;;3.33;;
26060;SDS011;36331;51.378;0.018;2023-02-28T05:05:26;6.75;;;2.95;;
26060;SDS011;36331;51.378;0.018;2023-02-28T05:07:55;6.30;;;3.22;;
26060;SDS011;36331;51.378;0.018;2023-02-28T05:10:24;7.35;;;3.40;;
26060;SDS011;36331;51.378;0.018;2023-02-28T05:12:54;7.15;;;2.55;;
26060;SDS011;36331;51.378;0.018;2023-02-28T05:15:24;2.95;;;2.33;;
26060;SDS011;36331;51.378;0.018;2023-02-28T05:17:53;7.28;;;3.45;;
26060;SDS011;36331;51.378;0.018;2023-02-28T05:20:22;9.02;;;3.53;;
26060;SDS011;36331;51.378;0.018;2023-02-28T05:22:51;4.22;;;2.55;;
26060;SDS011;36331;51.378;0.018;2023-02-28T05:25:20;6.13;;;2.63;;
26060;SDS011;36331;51.378;0.018;2023-02-28T05:27:49;5.80;;;3.53;;
26060;SDS011;36331;51.378;0.018;2023-02-28T05:30:21;6.88;;;2.80;;
26060;SDS011;36331;51.378;0.018;2023-02-28T05:32:50;4.43;;;2.55;;
26060;SDS011;36331;51.378;0.018;2023-02-28T05:35:20;4.03;;;2.67;;
26060;SDS011;36331;51.378;0.018;2023-02-28T05:37:49;9.20;;;2.92;;
26060;SDS011;36331;51.378;0.018;2023-02-28T05:40:18;7.70;;;4.75;;
26060;SDS011;36331;51.378;0.018;2023-02-28T05:42:49;4.97;;;2.83;;
26060;SDS011;36331;51.378;0.018;2023-02-28T05:45:21;8.68;;;2.60;;
26060;SDS011;36331;51.378;0.018;2023-02-28T05:47:52;5.50;;;3.45;;
26060;SDS011;36331;51.378;0.018;2023-02-28T05:50:22;10.70;;;3.13;;
26060;SDS011;36331;51.378;0.018;2023-02-28T05:52:51;6.63;;;3.17;;
26060;SDS011;36331;51.378;0.018;2023-02-28T05:55:20;7.25;;;2.92;;
26060;SDS011;36331;51.378;0.018;2023-02-28T05:57:49;5.80;;;2.92;;
26060;SDS011;36331;51.378;0.018;2023-02-28T06:00:20;9.52;;;3.38;;
26060;SDS011;36331;51.378;0.018;2023-02-28T06:05:23;5.93;;;3.35;;
26060;SDS011;36331;51.378;0.018;2023-02-28T06:07:52;4.38;;;3.10;;
26060;SDS011;36331;51.378;0.018;2023-02-28T06:10:21;4.43;;;2.65;;
26060;SDS011;36331;51.378;0.018;2023-02-28T06:12:50;7.85;;;3.80;;
26060;SDS011;36331;51.378;0.018;2023-02-28T06:15:21;7.47;;;3.45;;
26060;SDS011;36331;51.378;0.018;2023-02-28T06:17:50;11.82;;;4.50;;
26060;SDS011;36331;51.378;0.018;2023-02-28T06:20:19;6.18;;;3.47;;
26060;SDS011;36331;51.378;0.018;2023-02-28T06:22:48;8.52;;;3.17;;
26060;SDS011;36331;51.378;0.018;2023-02-28T06:25:18;8.10;;;3.70;;
26060;SDS011;36331;51.378;0.018;2023-02-28T06:27:48;9.00;;;3.92;;
26060;SDS011;36331;51.378;0.018;2023-02-28T06:30:18;12.48;;;5.82;;
26060;SDS011;36331;51.378;0.018;2023-02-28T06:32:57;8.07;;;3.70;;
26060;SDS011;36331;51.378;0.018;2023-02-28T06:35:26;7.18;;;3.83;;
26060;SDS011;36331;51.378;0.018;2023-02-28T06:37:57;11.05;;;4.78;;
26060;SDS011;36331;51.378;0.018;2023-02-28T06:40:27;12.82;;;4.05;;
26060;SDS011;36331;51.378;0.018;2023-02-28T06:42:59;6.78;;;4.32;;
26060;SDS011;36331;51.378;0.018;2023-02-28T06:45:28;6.35;;;3.70;;
26060;SDS011;36331;51.378;0.018;2023-02-28T06:47:59;6.20;;;3.92;;
26060;SDS011;36331;51.378;0.018;2023-02-28T06:50:28;6.82;;;3.92;;
26060;SDS011;36331;51.378;0.018;2023-02-28T06:52:59;12.15;;;4.57;;
26060;SDS011;36331;51.378;0.018;2023-02-28T06:55:28;11.60;;;4.05;;
26060;SDS011;36331;51.378;0.018;2023-02-28T06:57:57;9.75;;;6.10;;
26060;SDS011;36331;51.378;0.018;2023-02-28T07:00:27;10.82;;;4.63;;
26060;SDS011;36331;51.378;0.018;2023-02-28T07:02:57;9.35;;;4.65;;
26060;SDS011;36331;51.378;0.018;2023-02-28T07:05:28;12.77;;;4.82;;
26060;SDS011;36331;51.378;0.018;2023-02-28T07:07:57;6.30;;;3.97;;
26060;SDS011;36331;51.378;0.018;2023-02-28T07:10:26;11.50;;;4.53;;
26060;SDS011;36331;51.378;0.018;2023-02-28T07:12:56;9.68;;;4.65;;
26060;SDS011;36331;51.378;0.018;2023-02-28T07:15:25;8.98;;;4.50;;
26060;SDS011;36331;51.378;0.018;2023-02-28T07:17:54;8.45;;;4.65;;
26060;SDS011;36331;51.378;0.018;2023-02-28T07:20:24;7.78;;;4.25;;
26060;SDS011;36331;51.378;0.018;2023-02-28T07:22:54;7.50;;;3.95;;
26060;SDS011;36331;51.378;0.018;2023-02-28T07:25:24;7.50;;;4.20;;
26060;SDS011;36331;51.378;0.018;2023-02-28T07:27:54;11.20;;;4.72;;
26060;SDS011;36331;51.378;0.018;2023-02-28T07:30:23;8.05;;;4.57;;
26060;SDS011;36331;51.378;0.018;2023-02-28T07:32:52;6.72;;;4.15;;
26060;SDS011;36331;51.378;0.018;2023-02-28T07:35:23;7.95;;;4.97;;
26060;SDS011;36331;51.378;0.018;2023-02-28T07:37:52;7.93;;;3.90;;
26060;SDS011;36331;51.378;0.018;2023-02-28T07:40:22;6.35;;;3.72;;
26060;SDS011;36331;51.378;0.018;2023-02-28T07:42:51;6.32;;;4.75;;
26060;SDS011;36331;51.378;0.018;2023-02-28T07:45:23;5.97;;;4.25;;
26060;SDS011;36331;51.378;0.018;2023-02-28T07:47:52;7.55;;;4.05;;
26060;SDS011;36331;51.378;0.018;2023-02-28T07:50:21;5.32;;;3.97;;
26060;SDS011;36331;51.378;0.018;2023-02-28T07:52:53;10.27;;;3.80;;
26060;SDS011;36331;51.378;0.018;2023-02-28T07:55:23;6.13;;;3.05;;
26060;SDS011;36331;51.378;0.018;2023-02-28T07:57:52;10.33;;;4.03;;
26060;SDS011;36331;51.378;0.018;2023-02-28T08:00:22;4.55;;;3.08;;
26060;SDS011;36331;51.378;0.018;2023-02-28T08:02:51;6.43;;;3.20;;
26060;SDS011;36331;51.378;0.018;2023-02-28T08:05:20;5.13;;;3.40;;
26060;SDS011;36331;51.378;0.018;2023-02-28T08:07:50;7.45;;;3.13;;
26060;SDS011;36331;51.378;0.018;2023-02-28T08:10:20;9.40;;;2.78;;
26060;SDS011;36331;51.378;0.018;2023-02-28T08:12:50;4.45;;;2.35;;
26060;SDS011;36331;51.378;0.018;2023-02-28T08:15:19;4.35;;;2.70;;
26060;SDS011;36331;51.378;0.018;2023-02-28T08:17:49;5.07;;;2.35;;
26060;SDS011;36331;51.378;0.018;2023-02-28T08:20:18;6.47;;;2.38;;
26060;SDS011;36331;51.378;0.018;2023-02-28T08:22:47;4.00;;;2.72;;
26060;SDS011;36331;51.378;0.018;2023-02-28T08:25:16;7.50;;;2.83;;
26060;SDS011;36331;51.378;0.018;2023-02-28T08:27:45;4.13;;;2.40;;
26060;SDS011;36331;51.378;0.018;2023-02-28T08:30:16;5.20;;;2.95;;
26060;SDS011;36331;51.378;0.018;2023-02-28T08:32:45;3.65;;;1.98;;
26060;SDS011;36331;51.378;0.018;2023-02-28T08:35:14;3.30;;;2.13;;
26060;SDS011;36331;51.378;0.018;2023-02-28T08:37:43;2.75;;;1.98;;
26060;SDS011;36331;51.378;0.018;2023-02-28T08:40:12;2.33;;;1.90;;
26060;SDS011;36331;51.378;0.018;2023-02-28T08:42:45;5.57;;;1.95;;
26060;SDS011;36331;51.378;0.018;2023-02-28T08:45:15;3.25;;;1.80;;
26060;SDS011;36331;51.378;0.018;2023-02-28T08:47:44;4.55;;;2.17;;
26060;SDS011;36331;51.378;0.018;2023-02-28T08:50:13;2.83;;;1.98;;
26060;SDS011;36331;51.378;0.018;2023-02-28T08:52:43;2.00;;;1.65;;
26060;SDS011;36331;51.378;0.018;2023-02-28T08:55:12;5.07;;;1.88;;
26060;SDS011;36331;51.378;0.018;2023-02-28T08:57:41;5.63;;;2.05;;
26060;SDS011;36331;51.378;0.018;2023-02-28T09:00:11;4.00;;;1.63;;
26060;SDS011;36331;51.378;0.018;2023-02-28T09:02:43;2.75;;;1.55;;
26060;SDS011;36331;51.378;0.018;2023-02-28T09:05:12;3.05;;;1.20;;
26060;SDS011;36331;51.378;0.018;2023-02-28T09:07:42;3.55;;;1.27;;
26060;SDS011;36331;51.378;0.018;2023-02-28T09:10:11;2.00;;;1.15;;
26060;SDS011;36331;51.378;0.018;2023-02-28T09:12:40;2.05;;;1.33;;
26060;SDS011;36331;51.378;0.018;2023-02-28T09:15:10;3.38;;;1.33;;
26060;SDS011;36331;51.378;0.018;2023-02-28T09:17:39;1.73;;;1.33;;
26060;SDS011;36331;51.378;0.018;2023-02-28T09:20:12;2.57;;;1.50;;
26060;SDS011;36331;51.378;0.018;2023-02-28T09:22:41;2.85;;;1.58;;
26060;SDS011;36331;51.378;0.018;2023-02-28T09:25:10;1.45;;;1.13;;
26060;SDS011;36331;51.378;0.018;2023-02-28T09:27:40;4.00;;;1.15;;
26060;SDS011;36331;51.378;0.018;2023-02-28T09:30:10;1.98;;;1.65;;
26060;SDS011;36331;51.378;0.018;2023-02-28T09:32:39;2.58;;;1.92;;
26060;SDS011;36331;51.378;0.018;2023-02-28T09:35:09;2.85;;;1.13;;
26060;SDS011;36331;51.378;0.018;2023-02-28T09:37:41;2.80;;;1.60;;
26060;SDS011;36331;51.378;0.018;2023-02-28T09:40:11;3.03;;;1.52;;
26060;SDS011;36331;51.378;0.018;2023-02-28T09:42:41;8.50;;;2.00;;
26060;SDS011;36331;51.378;0.018;2023-02-28T09:45:13;3.83;;;1.80;;
26060;SDS011;36331;51.378;0.018;2023-02-28T09:47:45;4.40;;;1.55;;
26060;SDS011;36331;51.378;0.018;2023-02-28T09:50:17;3.40;;;1.60;;
26060;SDS011;36331;51.378;0.018;2023-02-28T09:52:52;2.33;;;1.67;;
26060;SDS011;36331;51.378;0.018;2023-02-28T09:55:22;3.63;;;1.33;;
26060;SDS011;36331;51.378;0.018;2023-02-28T09:58:01;4.57;;;1.73;;
26060;SDS011;36331;51.378;0.018;2023-02-28T10:00:32;3.58;;;2.60;;
26060;SDS011;36331;51.378;0.018;2023-02-28T10:03:08;3.72;;;2.22;;
26060;SDS011;36331;51.378;0.018;2023-02-28T10:05:47;7.53;;;2.15;;
26060;SDS011;36331;51.378;0.018;2023-02-28T10:08:21;6.18;;;1.48;;
26060;SDS011;36331;51.378;0.018;2023-02-28T10:10:53;2.83;;;1.73;;
26060;SDS011;36331;51.378;0.018;2023-02-28T10:13:25;1.75;;;1.35;;
26060;SDS011;36331;51.378;0.018;2023-02-28T10:15:57;2.83;;;1.75;;
26060;SDS011;36331;51.378;0.018;2023-02-28T10:18:30;3.22;;;1.63;;
26060;SDS011;36331;51.378;0.018;2023-02-28T10:20:59;1.65;;;1.25;;
26060;SDS011;36331;51.378;0.018;2023-02-28T10:23:32;7.05;;;2.65;;
26060;SDS011;36331;51.378;0.018;2023-02-28T10:26:08;3.35;;;1.65;;
26060;SDS011;36331;51.378;0.018;2023-02-28T10:28:38;3.28;;;1.70;;
26060;SDS011;36331;51.378;0.018;2023-02-28T10:31:08;2.70;;;1.45;;
26060;SDS011;36331;51.378;0.018;2023-02-28T10:33:42;1.70;;;1.40;;
26060;SDS011;36331;51.378;0.018;2023-02-28T10:36:15;1.75;;;1.10;;
26060;SDS011;36331;51.378;0.018;2023-02-28T10:38:46;3.42;;;2.03;;
26060;SDS011;36331;51.378;0.018;2023-02-28T10:41:16;3.30;;;1.95;;
26060;SDS011;36331;51.378;0.018;2023-02-28T10:44:15;2.70;;;1.92;;
26060;SDS011;36331;51.378;0.018;2023-02-28T10:46:48;4.03;;;2.88;;
26060;SDS011;36331;51.378;0.018;2023-02-28T10:49:19;3.85;;;3.50;;
26060;SDS011;36331;51.378;0.018;2023-02-28T10:51:49;2.95;;;2.08;;
26060;SDS011;36331;51.378;0.018;2023-02-28T10:54:22;6.90;;;2.28;;
26060;SDS011;36331;51.378;0.018;2023-02-28T10:57:05;3.65;;;1.60;;
26060;SDS011;36331;51.378;0.018;2023-02-28T10:59:35;9.45;;;4.60;;
26060;SDS011;36331;51.378;0.018;2023-02-28T11:02:14;6.93;;;3.30;;
26060;SDS011;36331;51.378;0.018;2023-02-28T11:04:57;4.38;;;3.22;;
26060;SDS011;36331;51.378;0.018;2023-02-28T11:07:26;3.92;;;2.38;;
26060;SDS011;36331;51.378;0.018;2023-02-28T11:10:16;5.90;;;2.85;;
26060;SDS011;36331;51.378;0.018;2023-02-28T11:12:46;4.65;;;3.10;;
26060;SDS011;36331;51.378;0.018;2023-02-28T11:15:21;3.60;;;1.30;;
26060;SDS011;36331;51.378;0.018;2023-02-28T11:17:56;2.05;;;1.50;;
26060;SDS011;36331;51.378;0.018;2023-02-28T11:20:26;10.75;;;4.97;;
26060;SDS011;36331;51.378;0.018;2023-02-28T11:22:57;4.65;;;2.33;;
26060;SDS011;36331;51.378;0.018;2023-02-28T11:25:30;8.43;;;3.63;;
26060;SDS011;36331;51.378;0.018;2023-02-28T11:28:00;9.32;;;2.97;;
26060;SDS011;36331;51.378;0.018;2023-02-28T11:30:32;4.35;;;2.35;;
26060;SDS011;36331;51.378;0.018;2023-02-28T11:33:16;4.43;;;2.65;;
26060;SDS011;36331;51.378;0.018;2023-02-28T11:35:48;3.15;;;1.30;;
26060;SDS011;36331;51.378;0.018;2023-02-28T11:38:18;4.85;;;2.33;;
26060;SDS011;36331;51.378;0.018;2023-02-28T11:40:51;2.92;;;2.15;;
26060;SDS011;36331;51.378;0.018;2023-02-28T11:43:28;1.45;;;1.20;;
26060;SDS011;36331;51.378;0.018;2023-02-28T11:46:04;3.75;;;1.00;;
26060;SDS011;36331;51.378;0.018;2023-02-28T11:48:39;3.35;;;1.70;;
26060;SDS011;36331;51.378;0.018;2023-02-28T11:51:13;5.00;;;1.60;;
26060;SDS011;36331;51.378;0.018;2023-02-28T11:56:32;2.55;;;1.55;;
26060;SDS011;36331;51.378;0.018;2023-02-28T11:59:06;2.60;;;1.83;;
26060;SDS011;36331;51.378;0.018;2023-02-28T12:01:43;1.73;;;1.40;;
26060;SDS011;36331;51.378;0.018;2023-02-28T12:04:17;3.33;;;1.77;;
26060;SDS011;36331;51.378;0.018;2023-02-28T12:06:51;2.78;;;2.08;;
26060;SDS011;36331;51.378;0.018;2023-02-28T12:09:37;3.28;;;1.67;;
26060;SDS011;36331;51.378;0.018;2023-02-28T12:12:15;7.35;;;2.70;;
26060;SDS011;36331;51.378;0.018;2023-02-28T12:14:55;7.55;;;4.20;;
26060;SDS011;36331;51.378;0.018;2023-02-28T12:17:37;3.38;;;2.25;;
26060;SDS011;36331;51.378;0.018;2023-02-28T12:20:16;4.85;;;2.72;;
26060;SDS011;36331;51.378;0.018;2023-02-28T12:22:48;4.97;;;2.78;;
26060;SDS011;36331;51.378;0.018;2023-02-28T12:25:34;2.90;;;2.10;;
26060;SDS011;36331;51.378;0.018;2023-02-28T12:28:11;2.40;;;1.52;;
26060;SDS011;36331;51.378;0.018;2023-02-28T12:30:43;3.33;;;1.20;;
26060;SDS011;36331;51.378;0.018;2023-02-28T12:33:15;5.20;;;2.28;;
26060;SDS011;36331;51.378;0.018;2023-02-28T12:35:47;1.85;;;1.02;;
26060;SDS011;36331;51.378;0.018;2023-02-28T12:38:18;1.88;;;1.25;;
26060;SDS011;36331;51.378;0.018;2023-02-28T12:40:49;3.58;;;1.40;;
26060;SDS011;36331;51.378;0.018;2023-02-28T12:43:22;1.77;;;1.40;;
26060;SDS011;36331;51.378;0.018;2023-02-28T12:45:55;2.67;;;1.58;;
26060;SDS011;36331;51.378;0.018;2023-02-28T12:48:27;2.40;;;1.75;;
26060;SDS011;36331;51.378;0.018;2023-02-28T12:50:59;4.18;;;1.92;;
26060;SDS011;36331;51.378;0.018;2023-02-28T12:53:31;2.55;;;1.95;;
26060;SDS011;36331;51.378;0.018;2023-02-28T12:56:08;2.50;;;1.55;;
26060;SDS011;36331;51.378;0.018;2023-02-28T12:58:42;2.47;;;1.58;;
26060;SDS011;36331;51.378;0.018;2023-02-28T13:01:26;1.05;;;0.68;;
26060;SDS011;36331;51.378;0.018;2023-02-28T13:04:03;1.77;;;1.20;;
26060;SDS011;36331;51.378;0.018;2023-02-28T13:06:42;1.88;;;1.10;;
26060;SDS011;36331;51.378;0.018;2023-02-28T13:09:14;3.17;;;1.00;;
26060;SDS011;36331;51.378;0.018;2023-02-28T13:11:45;1.67;;;1.25;;
26060;SDS011;36331;51.378;0.018;2023-02-28T13:14:24;2.53;;;1.30;;
26060;SDS011;36331;51.378;0.018;2023-02-28T13:16:56;1.50;;;1.30;;
26060;SDS011;36331;51.378;0.018;2023-02-28T13:19:26;2.63;;;1.50;;
26060;SDS011;36331;51.378;0.018;2023-02-28T13:21:58;2.05;;;1.38;;
26060;SDS011;36331;51.378;0.018;2023-02-28T13:24:38;1.58;;;1.42;;
26060;SDS011;36331;51.378;0.018;2023-02-28T13:27:19;2.10;;;1.35;;
26060;SDS011;36331;51.378;0.018;2023-02-28T13:29:52;1.65;;;1.20;;
26060;SDS011;36331;51.378;0.018;2023-02-28T13:38:15;1.30;;;0.70;;
26060;SDS011;36331;51.378;0.018;2023-02-28T13:40:44;3.45;;;1.92;;
26060;SDS011;36331;51.378;0.018;2023-02-28T13:43:15;1.02;;;0.70;;
26060;SDS011;36331;51.378;0.018;2023-02-28T13:46:06;2.45;;;1.00;;
26060;SDS011;36331;51.378;0.018;2023-02-28T13:48:37;1.55;;;0.88;;
26060;SDS011;36331;51.378;0.018;2023-02-28T13:51:27;1.20;;;0.95;;
26060;SDS011;36331;51.378;0.018;2023-02-28T13:54:00;5.38;;;2.95;;
26060;SDS011;36331;51.378;0.018;2023-02-28T13:59:02;1.63;;;0.90;;
26060;SDS011;36331;51.378;0.018;2023-02-28T14:01:39;2.00;;;1.15;;
26060;SDS011;36331;51.378;0.018;2023-02-28T14:04:29;1.10;;;0.80;;
26060;SDS011;36331;51.378;0.018;2023-02-28T14:07:03;2.25;;;1.15;;
26060;SDS011;36331;51.378;0.018;2023-02-28T14:09:33;2.65;;;1.23;;
26060;SDS011;36331;51.378;0.018;2023-02-28T14:14:53;2.22;;;1.20;;
26060;SDS011;36331;51.378;0.018;2023-02-28T14:17:25;0.80;;;0.80;;
26060;SDS011;36331;51.378;0.018;2023-02-28T14:19:55;1.88;;;0.95;;
26060;SDS011;36331;51.378;0.018;2023-02-28T14:22:37;1.92;;;1.40;;
26060;SDS011;36331;51.378;0.018;2023-02-28T14:25:11;1.60;;;1.20;;
26060;SDS011;36331;51.378;0.018;2023-02-28T14:27:47;2.03;;;1.15;;
26060;SDS011;36331;51.378;0.018;2023-02-28T14:30:40;2.08;;;1.20;;
26060;SDS011;36331;51.378;0.018;2023-02-28T14:33:16;1.05;;;0.95;;
26060;SDS011;36331;51.378;0.018;2023-02-28T14:38:35;3.63;;;0.95;;
26060;SDS011;36331;51.378;0.018;2023-02-28T14:41:06;2.15;;;0.95;;
26060;SDS011;36331;51.378;0.018;2023-02-28T14:43:47;2.50;;;0.98;;
26060;SDS011;36331;51.378;0.018;2023-02-28T14:46:16;1.48;;;1.30;;
26060;SDS011;36331;51.378;0.018;2023-02-28T14:48:48;1.70;;;0.90;;
26060;SDS011;36331;51.378;0.018;2023-02-28T14:51:18;2.03;;;1.30;;
26060;SDS011;36331;51.378;0.018;2023-02-28T14:53:49;1.13;;;0.98;;
26060;SDS011;36331;51.378;0.018;2023-02-28T14:56:23;2.63;;;1.00;;
26060;SDS011;36331;51.378;0.018;2023-02-28T14:58:53;1.65;;;1.40;;
26060;SDS011;36331;51.378;0.018;2023-02-28T15:01:24;2.00;;;1.05;;
26060;SDS011;36331;51.378;0.018;2023-02-28T15:03:59;3.22;;;0.82;;
26060;SDS011;36331;51.378;0.018;2023-02-28T15:06:30;1.75;;;0.80;;
26060;SDS011;36331;51.378;0.018;2023-02-28T15:09:07;0.98;;;0.80;;
26060;SDS011;36331;51.378;0.018;2023-02-28T15:11:36;2.08;;;1.27;;
26060;SDS011;36331;51.378;0.018;2023-02-28T15:14:06;1.05;;;0.80;;
26060;SDS011;36331;51.378;0.018;2023-02-28T15:16:36;0.90;;;0.65;;
26060;SDS011;36331;51.378;0.018;2023-02-28T15:19:11;1.35;;;1.15;;
26060;SDS011;36331;51.378;0.018;2023-02-28T15:21:43;1.85;;;0.50;;
26060;SDS011;36331;51.378;0.018;2023-02-28T15:24:15;1.25;;;0.60;;
26060;SDS011;36331;51.378;0.018;2023-02-28T15:26:51;1.10;;;0.73;;
26060;SDS011;36331;51.378;0.018;2023-02-28T15:29:22;5.13;;;0.77;;
26060;SDS011;36331;51.378;0.018;2023-02-28T15:31:55;1.10;;;0.57;;
26060;SDS011;36331;51.378;0.018;2023-02-28T15:34:29;2.35;;;0.63;;
26060;SDS011;36331;51.378;0.018;2023-02-28T15:37:27;1.00;;;0.63;;
26060;SDS011;36331;51.378;0.018;2023-02-28T15:39:58;1.95;;;0.40;;
26060;SDS011;36331;51.378;0.018;2023-02-28T15:42:33;1.35;;;0.68;;